Time;durP1;ratioP1;P1;durP2;ratioP2;P2;SDS_P1;SDS_P2;PMS_P1;PMS_P2;Temp;Humidity;BMP_temperature;BMP_pressure;BME280_temperature;BME280_humidity;BME280_pressure;Samples;Min_cycle;Max_cycle;Signal;HPM_P1;HPM_P2
2022/05/26 00:00:04;;;;;;;;;;;;;;;;;;350431;28;854;-72
2022/05/26 00:00:14;;;;;;;;;;;;;;;;;;350329;28;1134;-72
2022/05/26 00:00:24;;;;;;;;;;;;;;;;;;350388;28;885;-72
2022/05/26 00:00:34;;;;;;;;;;;;;;;;;;350319;28;916;-72
2022/05/26 00:00:46;;;;;;;;;;;;;;;;;;350368;28;951;-72
2022/05/26 00:00:56;;;;;;;;;;;;;;;;;;350391;28;919;-72
2022/05/26 00:01:07;;;;;;;;;;;;;;;;;;350314;28;1023;-72
2022/05/26 00:01:18;;;;;;;;;;;;;;;;;;350365;28;940;-72
2022/05/26 00:01:28;;;;;;;;;;;;;;;;;;349754;28;1659;-72
2022/05/26 00:01:38;;;;;;;;;;;;;;;;;;349849;28;1664;-72
2022/05/26 00:01:48;;;;;;;;;;;;;;;;;;350358;28;864;-72
2022/05/26 00:02:03;;;;;;;;;;;;;;;;;;350336;28;943;-72
2022/05/26 00:02:13;;;;;;;;;;;;;;;;;;350330;28;955;-72
2022/05/26 00:02:23;;;;;;;;;;;;;;;;;;350399;28;856;-73
2022/05/26 00:02:34;;;;;;;;;;;;;;;;;;350209;28;1121;-72
2022/05/26 00:02:44;;;;;;;;;;;;;;;;;;350339;28;964;-73
2022/05/26 00:02:54;;;;;;;;;;;;;;;;;;350408;28;987;-72
2022/05/26 00:03:04;;;;;;;;;;;;;;;;;;350363;28;925;-72
2022/05/26 00:03:15;;;;;;;;;;;;;;;;;;350360;28;845;-72
2022/05/26 00:03:25;;;;;;;;;;;;;;;;;;350292;28;917;-72
2022/05/26 00:03:36;;;;;;;;;;;;;;;;;;350335;28;932;-72
2022/05/26 00:03:47;;;;;;;;;;;;;;;;;;350421;28;786;-72
2022/05/26 00:03:58;;;;;;;;;;;;;;;;;;350368;28;1185;-72
2022/05/26 00:04:08;;;;;;;;;;;;;;;;;;350390;28;943;-72
2022/05/26 00:04:19;;;;;;;;;;;;;;;;;;350352;28;853;-72
2022/05/26 00:04:29;;;;;;;;;;;;;;;;;;350284;28;869;-73
2022/05/26 00:04:39;;;;;;;;;;;;;;;;;;350423;28;979;-73
2022/05/26 00:04:49;;;;;;;;;;;;;;;;;;350312;28;1047;-72
2022/05/26 00:05:00;;;;;;;;;;;;;;;;;;350325;28;936;-72
2022/05/26 00:05:10;;;;;;;;;;;;;;;;;;350350;28;980;-72
2022/05/26 00:05:20;;;;;;;;;;;;;;;;;;350427;28;849;-72
2022/05/26 00:05:30;;;;;;;;;;;;;;;;;;350309;28;944;-72
2022/05/26 00:05:40;;;;;;;;;;;;;;;;;;350320;28;786;-72
2022/05/26 00:05:51;;;;;;;;;;;;;;;;;;350368;28;937;-72
2022/05/26 00:06:02;;;;;;;;;;;;;;;;;;350374;28;990;-72
2022/05/26 00:06:14;;;;;;;;;;;;;;;;;;350090;28;1351;-72
2022/05/26 00:06:24;;;;;;;;;;;;;;;;;;350368;28;861;-72
2022/05/26 00:06:34;;;;;;;;;;;;;;;;;;350379;28;983;-72
2022/05/26 00:06:44;;;;;;;;;;;;;;;;;;350300;28;967;-72
2022/05/26 00:06:55;;;;;;;;;;;;;;;;;;350359;28;892;-72
2022/05/26 00:07:05;;;;;;;;;;;;;;;;;;350399;28;833;-72
2022/05/26 00:07:16;;;;;;;;;;;;;;;;;;350304;28;893;-72
2022/05/26 00:07:26;;;;;;;;;;;;;;;;;;348867;28;1620;-72
2022/05/26 00:07:37;;;;;;;;;;;;;;;;;;349680;28;1656;-72
2022/05/26 00:07:47;;;;;;;;;;;;;;;;;;348954;28;976;-73
2022/05/26 00:07:57;;;;;;;;;;;;;;;;;;348979;28;923;-72
2022/05/26 00:08:08;;;;;;;;;;;;;;;;;;349000;28;995;-72
2022/05/26 00:08:18;;;;;;;;;;;;;;;;;;348994;28;873;-72
2022/05/26 00:08:28;;;;;;;;;;;;;;;;;;348880;28;917;-72
2022/05/26 00:08:38;;;;;;;;;;;;;;;;;;348497;28;1410;-72
2022/05/26 00:08:50;;;;;;;;;;;;;;;;;;350417;28;817;-72
2022/05/26 00:09:00;;;;;;;;;;;;;;;;;;350420;28;873;-72
2022/05/26 00:09:11;;;;;;;;;;;;;;;;;;350327;28;881;-72
2022/05/26 00:09:21;;;;;;;;;;;;;;;;;;350348;28;1023;-72
2022/05/26 00:09:32;;;;;;;;;;;;;;;;;;350402;28;1003;-72
2022/05/26 00:09:43;;;;;;;;;;;;;;;;;;350374;28;904;-72
2022/05/26 00:09:53;;;;;;;;;;;;;;;;;;350342;28;932;-72
2022/05/26 00:10:03;;;;;;;;;;;;;;;;;;350367;28;961;-72
2022/05/26 00:10:13;;;;;;;;;;;;;;;;;;350311;28;1003;-72
2022/05/26 00:10:24;;;;;;;;;;;;;;;;;;350278;28;857;-72
2022/05/26 00:10:35;;;;;;;;;;;;;;;;;;349690;28;1134;-72
2022/05/26 00:10:45;;;;;;;;;;;;;;;;;;349922;28;932;-72
2022/05/26 00:10:56;;;;;;;;;;;;;;;;;;349958;28;940;-72
2022/05/26 00:11:08;;;;;;;;;;;;;;;;;;350162;28;916;-72
2022/05/26 00:11:20;;;;;;;;;;;;;;;;;;350070;28;1157;-73
2022/05/26 00:11:32;;;;;;;;;;;;;;;;;;350182;28;778;-73
2022/05/26 00:11:43;;;;;;;;;;;;;;;;;;350154;28;912;-72
2022/05/26 00:11:54;;;;;;;;;;;;;;;;;;350154;28;971;-72
2022/05/26 00:12:05;;;;;;;;;;;;;;;;;;350101;28;984;-72
2022/05/26 00:12:18;;;;;;;;;;;;;;;;;;350142;28;921;-72
2022/05/26 00:12:28;;;;;;;;;;;;;;;;;;350146;28;939;-72
2022/05/26 00:12:38;;;;;;;;;;;;;;;;;;350146;28;901;-72
2022/05/26 00:12:50;;;;;;;;;;;;;;;;;;350109;28;1003;-72
2022/05/26 00:13:00;;;;;;;;;;;;;;;;;;350182;28;1011;-73
2022/05/26 00:13:10;;;;;;;;;;;;;;;;;;350176;28;979;-72
2022/05/26 00:13:21;;;;;;;;;;;;;;;;;;350189;28;944;-72
2022/05/26 00:13:31;;;;;;;;;;;;;;;;;;350174;28;955;-73
2022/05/26 00:13:42;;;;;;;;;;;;;;;;;;350101;28;979;-72
2022/05/26 00:13:53;;;;;;;;;;;;;;;;;;350206;28;857;-72
2022/05/26 00:14:07;;;;;;;;;;;;;;;;;;350168;28;933;-72
2022/05/26 00:14:17;;;;;;;;;;;;;;;;;;350189;28;1026;-72
2022/05/26 00:14:27;;;;;;;;;;;;;;;;;;350152;28;1003;-72
2022/05/26 00:14:39;;;;;;;;;;;;;;;;;;350101;28;991;-72
2022/05/26 00:14:49;;;;;;;;;;;;;;;;;;350077;28;905;-73
2022/05/26 00:14:59;;;;;;;;;;;;;;;;;;350155;28;996;-72
2022/05/26 00:15:10;;;;;;;;;;;;;;;;;;350144;28;897;-72
2022/05/26 00:15:20;;;;;;;;;;;;;;;;;;350201;28;774;-72
2022/05/26 00:15:31;;;;;;;;;;;;;;;;;;350127;28;967;-72
2022/05/26 00:15:41;;;;;;;;;;;;;;;;;;350082;28;1097;-72
2022/05/26 00:15:52;;;;;;;;;;;;;;;;;;350175;28;893;-72
2022/05/26 00:16:03;;;;;;;;;;;;;;;;;;350154;28;905;-72
2022/05/26 00:16:13;;;;;;;;;;;;;;;;;;350129;28;1019;-72
2022/05/26 00:16:23;;;;;;;;;;;;;;;;;;350112;28;967;-72
2022/05/26 00:16:38;;;;;;;;;;;;;;;;;;350137;28;928;-72
2022/05/26 00:16:48;;;;;;;;;;;;;;;;;;350117;28;805;-72
2022/05/26 00:16:59;;;;;;;;;;;;;;;;;;350174;28;920;-72
2022/05/26 00:17:09;;;;;;;;;;;;;;;;;;350142;28;983;-72
2022/05/26 00:17:21;;;;;;;;;;;;;;;;;;350080;28;1906;-72
2022/05/26 00:17:31;;;;;;;;;;;;;;;;;;350147;28;1054;-72
2022/05/26 00:17:41;;;;;;;;;;;;;;;;;;350182;28;789;-72
2022/05/26 00:17:52;;;;;;;;;;;;;;;;;;350110;28;1125;-72
2022/05/26 00:18:02;;;;;;;;;;;;;;;;;;350184;28;940;-72
2022/05/26 00:18:12;;;;;;;;;;;;;;;;;;350095;28;978;-72
2022/05/26 00:18:23;;;;;;;;;;;;;;;;;;350189;28;850;-72
2022/05/26 00:18:33;;;;;;;;;;;;;;;;;;350154;28;1042;-72
2022/05/26 00:18:44;;;;;;;;;;;;;;;;;;350206;28;929;-72
2022/05/26 00:18:54;;;;;;;;;;;;;;;;;;350145;28;956;-73
2022/05/26 00:19:04;;;;;;;;;;;;;;;;;;350078;28;845;-73
2022/05/26 00:19:16;;;;;;;;;;;;;;;;;;350173;28;865;-72
2022/05/26 00:19:26;;;;;;;;;;;;;;;;;;350138;28;853;-72
2022/05/26 00:19:37;;;;;;;;;;;;;;;;;;350136;28;972;-72
2022/05/26 00:19:47;;;;;;;;;;;;;;;;;;350115;28;874;-73
2022/05/26 00:19:58;;;;;;;;;;;;;;;;;;350092;28;936;-73
2022/05/26 00:20:09;;;;;;;;;;;;;;;;;;350211;28;825;-73
2022/05/26 00:20:19;;;;;;;;;;;;;;;;;;350228;28;825;-72
2022/05/26 00:20:29;;;;;;;;;;;;;;;;;;350162;28;908;-72
2022/05/26 00:20:40;;;;;;;;;;;;;;;;;;350136;28;936;-72
2022/05/26 00:20:50;;;;;;;;;;;;;;;;;;350113;28;869;-72
2022/05/26 00:21:00;;;;;;;;;;;;;;;;;;350123;28;916;-72
2022/05/26 00:21:10;;;;;;;;;;;;;;;;;;350130;28;1030;-72
2022/05/26 00:21:21;;;;;;;;;;;;;;;;;;350172;28;944;-72
2022/05/26 00:21:31;;;;;;;;;;;;;;;;;;350155;28;822;-72
2022/05/26 00:21:41;;;;;;;;;;;;;;;;;;350071;28;1087;-72
2022/05/26 00:21:51;;;;;;;;;;;;;;;;;;350124;28;854;-72
2022/05/26 00:22:02;;;;;;;;;;;;;;;;;;350210;28;897;-72
2022/05/26 00:22:12;;;;;;;;;;;;;;;;;;350184;28;963;-72
2022/05/26 00:22:22;;;;;;;;;;;;;;;;;;350228;28;435;-72
2022/05/26 00:22:33;;;;;;;;;;;;;;;;;;350133;28;881;-73
2022/05/26 00:22:43;;;;;;;;;;;;;;;;;;350143;28;1031;-73
2022/05/26 00:22:53;;;;;;;;;;;;;;;;;;350147;28;972;-72
2022/05/26 00:23:04;;;;;;;;;;;;;;;;;;350113;28;916;-72
2022/05/26 00:23:14;;;;;;;;;;;;;;;;;;348775;28;1674;-72
2022/05/26 00:23:24;;;;;;;;;;;;;;;;;;350031;28;1005;-72
2022/05/26 00:23:34;;;;;;;;;;;;;;;;;;350120;28;996;-72
2022/05/26 00:23:45;;;;;;;;;;;;;;;;;;350109;28;917;-72
2022/05/26 00:23:55;;;;;;;;;;;;;;;;;;350047;28;905;-72
2022/05/26 00:24:06;;;;;;;;;;;;;;;;;;350145;28;987;-73
2022/05/26 00:24:18;;;;;;;;;;;;;;;;;;350168;28;959;-72
2022/05/26 00:24:28;;;;;;;;;;;;;;;;;;350106;28;893;-72
2022/05/26 00:24:38;;;;;;;;;;;;;;;;;;350047;28;1229;-72
2022/05/26 00:24:49;;;;;;;;;;;;;;;;;;350131;28;896;-72
2022/05/26 00:24:59;;;;;;;;;;;;;;;;;;350072;28;975;-72
2022/05/26 00:25:10;;;;;;;;;;;;;;;;;;350096;28;932;-72
2022/05/26 00:25:20;;;;;;;;;;;;;;;;;;350102;28;908;-72
2022/05/26 00:25:30;;;;;;;;;;;;;;;;;;349931;28;948;-72
2022/05/26 00:25:40;;;;;;;;;;;;;;;;;;350149;28;1015;-72
2022/05/26 00:25:50;;;;;;;;;;;;;;;;;;350140;28;999;-72
2022/05/26 00:26:01;;;;;;;;;;;;;;;;;;350080;28;885;-72
2022/05/26 00:26:11;;;;;;;;;;;;;;;;;;350135;28;932;-72
2022/05/26 00:26:22;;;;;;;;;;;;;;;;;;350168;28;970;-72
2022/05/26 00:26:33;;;;;;;;;;;;;;;;;;350111;28;896;-72
2022/05/26 00:26:43;;;;;;;;;;;;;;;;;;350128;28;951;-72
2022/05/26 00:26:53;;;;;;;;;;;;;;;;;;350128;28;909;-72
2022/05/26 00:27:04;;;;;;;;;;;;;;;;;;350096;28;1750;-72
2022/05/26 00:27:14;;;;;;;;;;;;;;;;;;350146;28;925;-72
2022/05/26 00:27:24;;;;;;;;;;;;;;;;;;350108;28;948;-72
2022/05/26 00:27:34;;;;;;;;;;;;;;;;;;350126;28;920;-73
2022/05/26 00:27:44;;;;;;;;;;;;;;;;;;350133;28;920;-72
2022/05/26 00:27:55;;;;;;;;;;;;;;;;;;350146;28;999;-72
2022/05/26 00:28:06;;;;;;;;;;;;;;;;;;350090;28;904;-72
2022/05/26 00:28:16;;;;;;;;;;;;;;;;;;350145;28;916;-72
2022/05/26 00:28:27;;;;;;;;;;;;;;;;;;350152;28;806;-72
2022/05/26 00:28:37;;;;;;;;;;;;;;;;;;350225;28;861;-72
2022/05/26 00:28:47;;;;;;;;;;;;;;;;;;350136;28;928;-73
2022/05/26 00:28:57;;;;;;;;;;;;;;;;;;350094;28;916;-73
2022/05/26 00:29:08;;;;;;;;;;;;;;;;;;350157;28;999;-72
2022/05/26 00:29:18;;;;;;;;;;;;;;;;;;350096;28;920;-72
2022/05/26 00:29:28;;;;;;;;;;;;;;;;;;350076;28;865;-72
2022/05/26 00:29:38;;;;;;;;;;;;;;;;;;350136;28;924;-72
2022/05/26 00:29:48;;;;;;;;;;;;;;;;;;350101;28;984;-72
2022/05/26 00:29:59;;;;;;;;;;;;;;;;;;350120;28;849;-72
2022/05/26 00:30:09;;;;;;;;;;;;;;;;;;350122;28;908;-72
2022/05/26 00:30:19;;;;;;;;;;;;;;;;;;350124;28;972;-72
2022/05/26 00:30:30;;;;;;;;;;;;;;;;;;350165;28;838;-72
2022/05/26 00:30:40;;;;;;;;;;;;;;;;;;350085;28;908;-72
2022/05/26 00:30:50;;;;;;;;;;;;;;;;;;350137;28;928;-72
2022/05/26 00:31:00;;;;;;;;;;;;;;;;;;350101;28;913;-72
2022/05/26 00:31:10;;;;;;;;;;;;;;;;;;350118;28;972;-73
2022/05/26 00:31:21;;;;;;;;;;;;;;;;;;350142;28;845;-72
2022/05/26 00:31:31;;;;;;;;;;;;;;;;;;350030;28;920;-73
2022/05/26 00:31:42;;;;;;;;;;;;;;;;;;350137;28;956;-73
2022/05/26 00:31:52;;;;;;;;;;;;;;;;;;350162;28;822;-72
2022/05/26 00:32:02;;;;;;;;;;;;;;;;;;350140;28;1808;-72
2022/05/26 00:32:12;;;;;;;;;;;;;;;;;;350184;28;810;-72
2022/05/26 00:32:22;;;;;;;;;;;;;;;;;;350107;28;916;-72
2022/05/26 00:32:33;;;;;;;;;;;;;;;;;;350126;28;900;-72
2022/05/26 00:32:43;;;;;;;;;;;;;;;;;;350091;28;1032;-72
2022/05/26 00:32:53;;;;;;;;;;;;;;;;;;350125;28;920;-72
2022/05/26 00:33:05;;;;;;;;;;;;;;;;;;349955;28;1138;-72
2022/05/26 00:33:16;;;;;;;;;;;;;;;;;;350120;28;951;-72
2022/05/26 00:33:27;;;;;;;;;;;;;;;;;;350134;28;920;-72
2022/05/26 00:33:37;;;;;;;;;;;;;;;;;;350116;28;892;-72
2022/05/26 00:33:47;;;;;;;;;;;;;;;;;;350132;28;963;-72
2022/05/26 00:33:58;;;;;;;;;;;;;;;;;;350117;28;1818;-72
2022/05/26 00:34:08;;;;;;;;;;;;;;;;;;350075;28;1520;-72
2022/05/26 00:34:18;;;;;;;;;;;;;;;;;;350124;28;999;-72
2022/05/26 00:34:28;;;;;;;;;;;;;;;;;;350133;28;896;-72
2022/05/26 00:34:38;;;;;;;;;;;;;;;;;;350072;28;929;-72
2022/05/26 00:34:48;;;;;;;;;;;;;;;;;;350132;28;941;-72
2022/05/26 00:34:59;;;;;;;;;;;;;;;;;;350163;28;826;-72
2022/05/26 00:35:09;;;;;;;;;;;;;;;;;;350089;28;940;-72
2022/05/26 00:35:19;;;;;;;;;;;;;;;;;;350076;28;960;-72
2022/05/26 00:35:30;;;;;;;;;;;;;;;;;;350140;28;872;-73
2022/05/26 00:35:40;;;;;;;;;;;;;;;;;;350021;28;1070;-72
2022/05/26 00:35:50;;;;;;;;;;;;;;;;;;350116;28;933;-72
2022/05/26 00:36:01;;;;;;;;;;;;;;;;;;350102;28;928;-72
2022/05/26 00:36:13;;;;;;;;;;;;;;;;;;350154;28;840;-72
2022/05/26 00:36:38;;;;;;;;;;;;;;;;;;350149;28;845;-72
2022/05/26 00:36:49;;;;;;;;;;;;;;;;;;350043;28;1000;-72
2022/05/26 00:36:59;;;;;;;;;;;;;;;;;;350157;28;822;-72
2022/05/26 00:37:09;;;;;;;;;;;;;;;;;;350072;28;917;-72
2022/05/26 00:37:20;;;;;;;;;;;;;;;;;;350078;28;1914;-72
2022/05/26 00:37:30;;;;;;;;;;;;;;;;;;350104;28;995;-73
2022/05/26 00:37:41;;;;;;;;;;;;;;;;;;350078;28;861;-72
2022/05/26 00:37:51;;;;;;;;;;;;;;;;;;350133;28;888;-72
2022/05/26 00:38:05;;;;;;;;;;;;;;;;;;350131;28;978;-72
2022/05/26 00:38:15;;;;;;;;;;;;;;;;;;350062;28;988;-72
2022/05/26 00:38:26;;;;;;;;;;;;;;;;;;350113;28;1034;-72
2022/05/26 00:38:36;;;;;;;;;;;;;;;;;;350135;28;924;-72
2022/05/26 00:38:46;;;;;;;;;;;;;;;;;;350104;28;806;-73
2022/05/26 00:38:57;;;;;;;;;;;;;;;;;;350092;28;901;-72
2022/05/26 00:39:15;;;;;;;;;;;;;;;;;;350152;28;853;-72
2022/05/26 00:39:26;;;;;;;;;;;;;;;;;;350027;28;1301;-72
2022/05/26 00:39:37;;;;;;;;;;;;;;;;;;350084;28;929;-72
2022/05/26 00:39:47;;;;;;;;;;;;;;;;;;350121;28;774;-72
2022/05/26 00:39:57;;;;;;;;;;;;;;;;;;350135;28;1086;-72
2022/05/26 00:40:08;;;;;;;;;;;;;;;;;;350117;28;975;-72
2022/05/26 00:40:19;;;;;;;;;;;;;;;;;;349972;28;1189;-72
2022/05/26 00:40:29;;;;;;;;;;;;;;;;;;350146;28;913;-73
2022/05/26 00:40:40;;;;;;;;;;;;;;;;;;350169;28;889;-72
2022/05/26 00:40:50;;;;;;;;;;;;;;;;;;350181;28;983;-72
2022/05/26 00:41:02;;;;;;;;;;;;;;;;;;350022;28;1095;-72
2022/05/26 00:41:13;;;;;;;;;;;;;;;;;;350069;28;1213;-72
2022/05/26 00:41:23;;;;;;;;;;;;;;;;;;350144;28;869;-72
2022/05/26 00:41:33;;;;;;;;;;;;;;;;;;350123;28;912;-72
2022/05/26 00:41:48;;;;;;;;;;;;;;;;;;350041;28;988;-73
2022/05/26 00:42:01;;;;;;;;;;;;;;;;;;350101;28;913;-72
2022/05/26 00:42:11;;;;;;;;;;;;;;;;;;350113;28;1026;-72
2022/05/26 00:42:21;;;;;;;;;;;;;;;;;;348976;28;1438;-72
2022/05/26 00:42:31;;;;;;;;;;;;;;;;;;348486;28;1374;-72
2022/05/26 00:42:41;;;;;;;;;;;;;;;;;;348736;28;1012;-72
2022/05/26 00:42:52;;;;;;;;;;;;;;;;;;348702;28;1076;-72
2022/05/26 00:43:02;;;;;;;;;;;;;;;;;;348682;28;929;-73
2022/05/26 00:43:13;;;;;;;;;;;;;;;;;;348787;28;786;-72
2022/05/26 00:43:23;;;;;;;;;;;;;;;;;;348737;28;944;-72
2022/05/26 00:43:34;;;;;;;;;;;;;;;;;;348731;28;964;-72
2022/05/26 00:43:45;;;;;;;;;;;;;;;;;;348739;28;993;-72
2022/05/26 00:43:55;;;;;;;;;;;;;;;;;;348732;28;912;-72
2022/05/26 00:44:05;;;;;;;;;;;;;;;;;;348681;28;905;-72
2022/05/26 00:44:16;;;;;;;;;;;;;;;;;;348760;28;907;-72
2022/05/26 00:44:27;;;;;;;;;;;;;;;;;;348779;28;1007;-72
2022/05/26 00:44:37;;;;;;;;;;;;;;;;;;348746;28;920;-72
2022/05/26 00:44:47;;;;;;;;;;;;;;;;;;348671;28;992;-72
2022/05/26 00:44:57;;;;;;;;;;;;;;;;;;348727;28;830;-72
2022/05/26 00:45:08;;;;;;;;;;;;;;;;;;348724;28;980;-72
2022/05/26 00:45:18;;;;;;;;;;;;;;;;;;348649;28;972;-72
2022/05/26 00:45:51;;;;;;;;;;;;;;;;;;348721;28;928;-72
2022/05/26 00:46:06;;;;;;;;;;;;;;;;;;348667;28;921;-72
2022/05/26 00:46:38;;;;;;;;;;;;;;;;;;348718;28;999;-73
2022/05/26 00:46:51;;;;;;;;;;;;;;;;;;348700;28;912;-72
2022/05/26 00:47:08;;;;;;;;;;;;;;;;;;348735;28;991;-72
2022/05/26 00:47:23;;;;;;;;;;;;;;;;;;348661;28;862;-73
2022/05/26 00:47:35;;;;;;;;;;;;;;;;;;348758;28;802;-72
2022/05/26 00:47:47;;;;;;;;;;;;;;;;;;348701;28;925;-72
2022/05/26 00:47:57;;;;;;;;;;;;;;;;;;348733;28;913;-73
2022/05/26 00:48:11;;;;;;;;;;;;;;;;;;348638;28;1030;-72
2022/05/26 00:48:24;;;;;;;;;;;;;;;;;;348687;28;1019;-73
2022/05/26 00:48:40;;;;;;;;;;;;;;;;;;348720;28;937;-72
2022/05/26 00:48:55;;;;;;;;;;;;;;;;;;348683;28;937;-73
2022/05/26 00:49:08;;;;;;;;;;;;;;;;;;348730;28;1866;-72
2022/05/26 00:49:24;;;;;;;;;;;;;;;;;;348702;28;1075;-73
2022/05/26 00:49:56;;;;;;;;;;;;;;;;;;348683;28;960;-73
2022/05/26 00:50:06;;;;;;;;;;;;;;;;;;348671;28;936;-72
2022/05/26 00:50:19;;;;;;;;;;;;;;;;;;348651;28;932;-73
2022/05/26 00:50:31;;;;;;;;;;;;;;;;;;348751;28;857;-72
2022/05/26 00:50:48;;;;;;;;;;;;;;;;;;348719;28;936;-72
2022/05/26 00:51:01;;;;;;;;;;;;;;;;;;348707;28;1051;-73
2022/05/26 00:51:12;;;;;;;;;;;;;;;;;;348702;28;801;-72
2022/05/26 00:51:27;;;;;;;;;;;;;;;;;;348734;28;909;-73
2022/05/26 00:51:37;;;;;;;;;;;;;;;;;;348760;28;811;-72
2022/05/26 00:51:48;;;;;;;;;;;;;;;;;;348684;28;956;-73
2022/05/26 00:51:58;;;;;;;;;;;;;;;;;;348729;28;882;-72
2022/05/26 00:52:11;;;;;;;;;;;;;;;;;;348688;28;1004;-72
2022/05/26 00:52:30;;;;;;;;;;;;;;;;;;348651;28;980;-72
2022/05/26 00:52:42;;;;;;;;;;;;;;;;;;348732;28;928;-72
2022/05/26 00:52:54;;;;;;;;;;;;;;;;;;348177;28;1608;-72
2022/05/26 00:53:17;;;;;;;;;;;;;;;;;;349967;28;1000;-72
2022/05/26 00:53:27;;;;;;;;;;;;;;;;;;350090;28;957;-72
2022/05/26 00:53:40;;;;;;;;;;;;;;;;;;350071;28;1006;-72
2022/05/26 00:53:52;;;;;;;;;;;;;;;;;;350069;28;996;-72
2022/05/26 00:54:06;;;;;;;;;;;;;;;;;;350093;28;929;-72
2022/05/26 00:54:19;;;;;;;;;;;;;;;;;;350062;28;932;-72
2022/05/26 00:54:30;;;;;;;;;;;;;;;;;;350081;28;920;-72
2022/05/26 00:54:41;;;;;;;;;;;;;;;;;;350025;28;984;-72
2022/05/26 00:54:53;;;;;;;;;;;;;;;;;;350098;28;885;-72
2022/05/26 00:55:07;;;;;;;;;;;;;;;;;;350085;28;1763;-73
2022/05/26 00:55:23;;;;;;;;;;;;;;;;;;350097;28;904;-72
2022/05/26 00:55:35;;;;;;;;;;;;;;;;;;350101;28;904;-72
2022/05/26 00:55:49;;;;;;;;;;;;;;;;;;350126;28;928;-73
2022/05/26 00:56:14;;;;;;;;;;;;;;;;;;350099;28;979;-72
2022/05/26 00:56:24;;;;;;;;;;;;;;;;;;350021;28;913;-72
2022/05/26 00:56:41;;;;;;;;;;;;;;;;;;350071;28;964;-72
2022/05/26 00:56:58;;;;;;;;;;;;;;;;;;350071;28;920;-73
2022/05/26 00:57:10;;;;;;;;;;;;;;;;;;350127;28;928;-72
2022/05/26 00:57:22;;;;;;;;;;;;;;;;;;349998;28;1910;-72
2022/05/26 00:57:35;;;;;;;;;;;;;;;;;;350087;28;1031;-73
2022/05/26 00:57:49;;;;;;;;;;;;;;;;;;350164;28;863;-72
2022/05/26 00:58:02;;;;;;;;;;;;;;;;;;350099;28;965;-72
2022/05/26 00:58:17;;;;;;;;;;;;;;;;;;350047;28;992;-72
2022/05/26 00:58:34;;;;;;;;;;;;;;;;;;350099;28;873;-72
2022/05/26 00:58:47;;;;;;;;;;;;;;;;;;350069;28;1115;-72
2022/05/26 00:59:01;;;;;;;;;;;;;;;;;;350103;28;1164;-72
2022/05/26 00:59:14;;;;;;;;;;;;;;;;;;350072;28;814;-72
2022/05/26 00:59:32;;;;;;;;;;;;;;;;;;350111;28;1018;-72
2022/05/26 00:59:48;;;;;;;;;;;;;;;;;;350087;28;861;-72
2022/05/26 01:00:08;;;;;;;;;;;;;;;;;;350154;28;893;-72
2022/05/26 01:00:20;;;;;;;;;;;;;;;;;;350066;28;980;-72
2022/05/26 01:00:32;;;;;;;;;;;;;;;;;;349990;28;1281;-72
2022/05/26 01:00:43;;;;;;;;;;;;;;;;;;350046;28;795;-72
2022/05/26 01:00:54;;;;;;;;;;;;;;;;;;350125;28;908;-72
2022/05/26 01:01:04;;;;;;;;;;;;;;;;;;350042;28;917;-72
2022/05/26 01:01:15;;;;;;;;;;;;;;;;;;350101;28;1016;-72
2022/05/26 01:01:26;;;;;;;;;;;;;;;;;;350065;28;1112;-72
2022/05/26 01:01:37;;;;;;;;;;;;;;;;;;350046;28;1023;-73
2022/05/26 01:01:47;;;;;;;;;;;;;;;;;;350044;28;864;-73
2022/05/26 01:01:58;;;;;;;;;;;;;;;;;;350083;28;797;-72
2022/05/26 01:02:08;;;;;;;;;;;;;;;;;;350106;28;869;-72
2022/05/26 01:02:22;;;;;;;;;;;;;;;;;;350095;28;936;-72
2022/05/26 01:02:38;;;;;;;;;;;;;;;;;;349908;28;1190;-72
2022/05/26 01:02:52;;;;;;;;;;;;;;;;;;350072;28;1031;-72
2022/05/26 01:03:06;;;;;;;;;;;;;;;;;;350063;28;976;-72
2022/05/26 01:03:20;;;;;;;;;;;;;;;;;;350037;28;905;-72
2022/05/26 01:03:42;;;;;;;;;;;;;;;;;;350040;28;928;-73
2022/05/26 01:03:55;;;;;;;;;;;;;;;;;;350120;28;861;-72
2022/05/26 01:04:10;;;;;;;;;;;;;;;;;;350055;28;786;-73
2022/05/26 01:04:22;;;;;;;;;;;;;;;;;;350088;28;976;-73
2022/05/26 01:04:39;;;;;;;;;;;;;;;;;;350115;28;841;-72
2022/05/26 01:04:53;;;;;;;;;;;;;;;;;;350030;28;936;-72
2022/05/26 01:05:07;;;;;;;;;;;;;;;;;;350032;28;1036;-73
2022/05/26 01:05:21;;;;;;;;;;;;;;;;;;350065;28;1213;-72
2022/05/26 01:05:37;;;;;;;;;;;;;;;;;;350108;28;983;-72
2022/05/26 01:05:57;;;;;;;;;;;;;;;;;;350052;28;955;-72
2022/05/26 01:06:16;;;;;;;;;;;;;;;;;;350116;28;924;-72
2022/05/26 01:06:29;;;;;;;;;;;;;;;;;;350033;28;798;-72
2022/05/26 01:06:48;;;;;;;;;;;;;;;;;;350109;28;876;-72
2022/05/26 01:07:13;;;;;;;;;;;;;;;;;;350048;28;955;-72
2022/05/26 01:07:25;;;;;;;;;;;;;;;;;;350083;28;1095;-72
2022/05/26 01:07:37;;;;;;;;;;;;;;;;;;350041;28;936;-72
2022/05/26 01:07:47;;;;;;;;;;;;;;;;;;350057;28;912;-72
2022/05/26 01:07:59;;;;;;;;;;;;;;;;;;350132;28;921;-72
2022/05/26 01:08:16;;;;;;;;;;;;;;;;;;350051;28;1025;-73
2022/05/26 01:08:33;;;;;;;;;;;;;;;;;;350129;28;1801;-72
2022/05/26 01:09:00;;;;;;;;;;;;;;;;;;350116;28;1629;-72
2022/05/26 01:09:10;;;;;;;;;;;;;;;;;;350083;28;972;-72
2022/05/26 01:09:20;;;;;;;;;;;;;;;;;;350084;28;920;-72
2022/05/26 01:09:30;;;;;;;;;;;;;;;;;;350142;28;913;-72
2022/05/26 01:09:41;;;;;;;;;;;;;;;;;;350113;28;769;-72
2022/05/26 01:09:51;;;;;;;;;;;;;;;;;;350051;28;893;-72
2022/05/26 01:10:02;;;;;;;;;;;;;;;;;;350087;28;953;-72
2022/05/26 01:10:14;;;;;;;;;;;;;;;;;;350108;28;929;-72
2022/05/26 01:10:24;;;;;;;;;;;;;;;;;;350078;28;1146;-72
2022/05/26 01:10:34;;;;;;;;;;;;;;;;;;350048;28;1034;-72
2022/05/26 01:10:45;;;;;;;;;;;;;;;;;;350071;28;1023;-73
2022/05/26 01:10:55;;;;;;;;;;;;;;;;;;350077;28;869;-72
2022/05/26 01:11:07;;;;;;;;;;;;;;;;;;350022;28;1126;-72
2022/05/26 01:11:17;;;;;;;;;;;;;;;;;;350085;28;924;-72
2022/05/26 01:11:29;;;;;;;;;;;;;;;;;;350089;28;932;-72
2022/05/26 01:11:41;;;;;;;;;;;;;;;;;;350077;28;937;-72
2022/05/26 01:11:51;;;;;;;;;;;;;;;;;;350096;28;865;-72
2022/05/26 01:12:01;;;;;;;;;;;;;;;;;;350052;28;967;-72
2022/05/26 01:12:12;;;;;;;;;;;;;;;;;;350107;28;992;-72
2022/05/26 01:12:23;;;;;;;;;;;;;;;;;;350084;28;936;-72
2022/05/26 01:12:33;;;;;;;;;;;;;;;;;;350114;28;798;-72
2022/05/26 01:12:43;;;;;;;;;;;;;;;;;;350018;28;925;-72
2022/05/26 01:12:55;;;;;;;;;;;;;;;;;;350065;28;786;-72
2022/05/26 01:13:05;;;;;;;;;;;;;;;;;;350036;28;1015;-72
2022/05/26 01:13:17;;;;;;;;;;;;;;;;;;350044;28;957;-72
2022/05/26 01:13:29;;;;;;;;;;;;;;;;;;350000;28;1067;-72
2022/05/26 01:13:43;;;;;;;;;;;;;;;;;;350110;28;762;-72
2022/05/26 01:14:06;;;;;;;;;;;;;;;;;;350054;28;1004;-72
2022/05/26 01:14:36;;;;;;;;;;;;;;;;;;349871;28;1060;-72
2022/05/26 01:15:03;;;;;;;;;;;;;;;;;;350086;28;991;-72
2022/05/26 01:15:15;;;;;;;;;;;;;;;;;;350017;28;794;-72
2022/05/26 01:15:31;;;;;;;;;;;;;;;;;;350069;28;932;-72
2022/05/26 01:15:46;;;;;;;;;;;;;;;;;;350088;28;991;-72
2022/05/26 01:16:09;;;;;;;;;;;;;;;;;;350002;28;1031;-72
2022/05/26 01:16:29;;;;;;;;;;;;;;;;;;348647;28;921;-72
2022/05/26 01:16:54;;;;;;;;;;;;;;;;;;348614;28;976;-72
2022/05/26 01:17:04;;;;;;;;;;;;;;;;;;348617;28;1028;-72
2022/05/26 01:17:28;;;;;;;;;;;;;;;;;;348592;28;878;-73
2022/05/26 01:17:57;;;;;;;;;;;;;;;;;;348655;28;1024;-72
2022/05/26 01:18:07;;;;;;;;;;;;;;;;;;348218;28;1771;-73
2022/05/26 01:18:29;;;;;;;;;;;;;;;;;;348705;28;810;-72
2022/05/26 01:18:40;;;;;;;;;;;;;;;;;;348707;28;995;-72
2022/05/26 01:19:08;;;;;;;;;;;;;;;;;;348749;28;865;-72
2022/05/26 01:19:27;;;;;;;;;;;;;;;;;;348575;28;913;-72
2022/05/26 01:19:56;;;;;;;;;;;;;;;;;;348680;28;940;-72
2022/05/26 01:20:07;;;;;;;;;;;;;;;;;;348609;28;925;-73
2022/05/26 01:20:20;;;;;;;;;;;;;;;;;;348702;28;801;-72
2022/05/26 01:20:38;;;;;;;;;;;;;;;;;;348686;28;912;-72
2022/05/26 01:21:07;;;;;;;;;;;;;;;;;;348727;28;879;-72
2022/05/26 01:21:40;;;;;;;;;;;;;;;;;;348713;28;786;-72
2022/05/26 01:21:54;;;;;;;;;;;;;;;;;;344423;28;1080;-72
2022/05/26 01:22:14;;;;;;;;;;;;;;;;;;344149;28;960;-72
2022/05/26 01:22:43;;;;;;;;;;;;;;;;;;344255;28;842;-72
2022/05/26 01:23:12;;;;;;;;;;;;;;;;;;345785;28;1541;-72
2022/05/26 01:23:40;;;;;;;;;;;;;;;;;;350079;28;887;-72
2022/05/26 01:23:59;;;;;;;;;;;;;;;;;;350013;28;972;-72
2022/05/26 01:24:13;;;;;;;;;;;;;;;;;;348458;28;1567;-72
2022/05/26 01:24:38;;;;;;;;;;;;;;;;;;349371;28;1734;-73
2022/05/26 01:24:51;;;;;;;;;;;;;;;;;;350068;28;842;-72
2022/05/26 01:25:07;;;;;;;;;;;;;;;;;;349888;28;925;-72
2022/05/26 01:25:35;;;;;;;;;;;;;;;;;;350047;28;905;-72
2022/05/26 01:26:00;;;;;;;;;;;;;;;;;;349981;28;952;-72
2022/05/26 01:26:11;;;;;;;;;;;;;;;;;;349984;28;925;-72
2022/05/26 01:26:40;;;;;;;;;;;;;;;;;;349972;28;941;-72
2022/05/26 01:26:50;;;;;;;;;;;;;;;;;;350016;28;993;-72
2022/05/26 01:27:14;;;;;;;;;;;;;;;;;;350037;28;992;-72
2022/05/26 01:27:31;;;;;;;;;;;;;;;;;;350035;28;1016;-72
2022/05/26 01:27:44;;;;;;;;;;;;;;;;;;350037;28;802;-72
2022/05/26 01:28:03;;;;;;;;;;;;;;;;;;350011;28;862;-72
2022/05/26 01:28:31;;;;;;;;;;;;;;;;;;350038;28;932;-72
2022/05/26 01:28:51;;;;;;;;;;;;;;;;;;349982;28;925;-73
2022/05/26 01:29:18;;;;;;;;;;;;;;;;;;350036;28;1011;-72
2022/05/26 01:29:45;;;;;;;;;;;;;;;;;;350028;28;956;-72
2022/05/26 01:30:04;;;;;;;;;;;;;;;;;;350054;28;956;-73
2022/05/26 01:30:20;;;;;;;;;;;;;;;;;;349984;28;854;-73
2022/05/26 01:30:50;;;;;;;;;;;;;;;;;;349465;28;1457;-72
2022/05/26 01:31:24;;;;;;;;;;;;;;;;;;349393;28;1156;-72
2022/05/26 01:31:54;;;;;;;;;;;;;;;;;;350055;28;976;-73